sensor_id;sensor_type;location;lat;lon;timestamp;pressure;altitude;pressure_sealevel;temperature
17142;BMP180;32805;53.556;9.944;2023-07-08T00:01:36;101994.00;;;21.10
17142;BMP180;32805;53.556;9.944;2023-07-08T00:04:04;101993.00;;;21.10
17142;BMP180;32805;53.556;9.944;2023-07-08T00:06:34;101984.00;;;21.10
17142;BMP180;32805;53.556;9.944;2023-07-08T00:09:07;101984.00;;;21.10
17142;BMP180;32805;53.556;9.944;2023-07-08T00:11:36;101984.00;;;21.10
17142;BMP180;32805;53.556;9.944;2023-07-08T00:14:04;101982.00;;;21.10
17142;BMP180;32805;53.556;9.944;2023-07-08T00:16:31;101971.00;;;21.00
17142;BMP180;32805;53.556;9.944;2023-07-08T00:18:59;101971.00;;;21.00
17142;BMP180;32805;53.556;9.944;2023-07-08T00:21:27;101967.00;;;21.00
17142;BMP180;32805;53.556;9.944;2023-07-08T00:23:56;101972.00;;;20.90
17142;BMP180;32805;53.556;9.944;2023-07-08T00:26:25;101968.00;;;20.90
17142;BMP180;32805;53.556;9.944;2023-07-08T00:28:54;101965.00;;;20.80
17142;BMP180;32805;53.556;9.944;2023-07-08T00:31:23;101967.00;;;20.80
17142;BMP180;32805;53.556;9.944;2023-07-08T00:33:54;101964.00;;;20.70
17142;BMP180;32805;53.556;9.944;2023-07-08T00:36:24;101961.00;;;20.80
17142;BMP180;32805;53.556;9.944;2023-07-08T00:38:53;101967.00;;;20.70
17142;BMP180;32805;53.556;9.944;2023-07-08T00:41:25;101961.00;;;20.70
17142;BMP180;32805;53.556;9.944;2023-07-08T00:43:56;101967.00;;;20.70
17142;BMP180;32805;53.556;9.944;2023-07-08T00:46:44;101965.00;;;20.60
17142;BMP180;32805;53.556;9.944;2023-07-08T00:49:25;101959.00;;;20.60
17142;BMP180;32805;53.556;9.944;2023-07-08T00:51:54;101955.00;;;20.50
17142;BMP180;32805;53.556;9.944;2023-07-08T00:54:21;101961.00;;;20.50
17142;BMP180;32805;53.556;9.944;2023-07-08T00:56:52;101954.00;;;20.40
17142;BMP180;32805;53.556;9.944;2023-07-08T00:59:25;101951.00;;;20.40
17142;BMP180;32805;53.556;9.944;2023-07-08T01:01:54;101948.00;;;20.40
17142;BMP180;32805;53.556;9.944;2023-07-08T01:04:24;101957.00;;;20.40
17142;BMP180;32805;53.556;9.944;2023-07-08T01:06:57;101955.00;;;20.40
17142;BMP180;32805;53.556;9.944;2023-07-08T01:09:28;101948.00;;;20.40
17142;BMP180;32805;53.556;9.944;2023-07-08T01:11:59;101947.00;;;20.40
17142;BMP180;32805;53.556;9.944;2023-07-08T01:14:30;101947.00;;;20.40
17142;BMP180;32805;53.556;9.944;2023-07-08T01:16:59;101947.00;;;20.40
17142;BMP180;32805;53.556;9.944;2023-07-08T01:19:28;101954.00;;;20.30
17142;BMP180;32805;53.556;9.944;2023-07-08T01:22:01;101956.00;;;20.30
17142;BMP180;32805;53.556;9.944;2023-07-08T01:24:30;101948.00;;;20.30
17142;BMP180;32805;53.556;9.944;2023-07-08T01:26:59;101937.00;;;20.30
17142;BMP180;32805;53.556;9.944;2023-07-08T01:29:28;101945.00;;;20.30
17142;BMP180;32805;53.556;9.944;2023-07-08T01:31:57;101942.00;;;20.30
17142;BMP180;32805;53.556;9.944;2023-07-08T01:34:29;101940.00;;;20.20
17142;BMP180;32805;53.556;9.944;2023-07-08T01:36:58;101936.00;;;20.10
17142;BMP180;32805;53.556;9.944;2023-07-08T01:39:30;101946.00;;;20.00
17142;BMP180;32805;53.556;9.944;2023-07-08T01:41:58;101928.00;;;20.00
17142;BMP180;32805;53.556;9.944;2023-07-08T01:44:28;101930.00;;;20.00
17142;BMP180;32805;53.556;9.944;2023-07-08T01:46:58;101922.00;;;19.90
17142;BMP180;32805;53.556;9.944;2023-07-08T01:49:28;101924.00;;;19.90
17142;BMP180;32805;53.556;9.944;2023-07-08T01:51:56;101921.00;;;19.90
17142;BMP180;32805;53.556;9.944;2023-07-08T01:54:25;101934.00;;;19.90
17142;BMP180;32805;53.556;9.944;2023-07-08T01:56:58;101932.00;;;19.80
17142;BMP180;32805;53.556;9.944;2023-07-08T01:59:27;101922.00;;;19.80
17142;BMP180;32805;53.556;9.944;2023-07-08T02:01:55;101924.00;;;19.80
17142;BMP180;32805;53.556;9.944;2023-07-08T02:04:24;101926.00;;;19.80
17142;BMP180;32805;53.556;9.944;2023-07-08T02:06:53;101924.00;;;19.70
17142;BMP180;32805;53.556;9.944;2023-07-08T02:09:21;101928.00;;;19.70
17142;BMP180;32805;53.556;9.944;2023-07-08T02:11:49;101921.00;;;19.70
17142;BMP180;32805;53.556;9.944;2023-07-08T02:14:18;101920.00;;;19.60
17142;BMP180;32805;53.556;9.944;2023-07-08T02:16:45;101914.00;;;19.70
17142;BMP180;32805;53.556;9.944;2023-07-08T02:19:13;101922.00;;;19.70
17142;BMP180;32805;53.556;9.944;2023-07-08T02:21:41;101928.00;;;19.70
17142;BMP180;32805;53.556;9.944;2023-07-08T02:24:09;101926.00;;;19.70
17142;BMP180;32805;53.556;9.944;2023-07-08T02:26:37;101919.00;;;19.60
17142;BMP180;32805;53.556;9.944;2023-07-08T02:29:04;101915.00;;;19.50
17142;BMP180;32805;53.556;9.944;2023-07-08T02:31:34;101919.00;;;19.50
17142;BMP180;32805;53.556;9.944;2023-07-08T02:34:02;101915.00;;;19.50
17142;BMP180;32805;53.556;9.944;2023-07-08T02:36:29;101913.00;;;19.50
17142;BMP180;32805;53.556;9.944;2023-07-08T02:38:57;101908.00;;;19.50
17142;BMP180;32805;53.556;9.944;2023-07-08T02:41:25;101903.00;;;19.50
17142;BMP180;32805;53.556;9.944;2023-07-08T02:43:52;101914.00;;;19.50
17142;BMP180;32805;53.556;9.944;2023-07-08T02:46:20;101921.00;;;19.50
17142;BMP180;32805;53.556;9.944;2023-07-08T02:48:49;101920.00;;;19.50
17142;BMP180;32805;53.556;9.944;2023-07-08T02:51:17;101920.00;;;19.50
17142;BMP180;32805;53.556;9.944;2023-07-08T02:53:45;101918.00;;;19.50
17142;BMP180;32805;53.556;9.944;2023-07-08T02:56:13;101917.00;;;19.50
17142;BMP180;32805;53.556;9.944;2023-07-08T02:58:40;101925.00;;;19.50
17142;BMP180;32805;53.556;9.944;2023-07-08T03:01:08;101925.00;;;19.50
17142;BMP180;32805;53.556;9.944;2023-07-08T03:03:37;101924.00;;;19.40
17142;BMP180;32805;53.556;9.944;2023-07-08T03:06:06;101927.00;;;19.40
17142;BMP180;32805;53.556;9.944;2023-07-08T03:08:33;101928.00;;;19.50
17142;BMP180;32805;53.556;9.944;2023-07-08T03:11:03;101922.00;;;19.40
17142;BMP180;32805;53.556;9.944;2023-07-08T03:13:34;101923.00;;;19.40
17142;BMP180;32805;53.556;9.944;2023-07-08T03:16:02;101925.00;;;19.40
17142;BMP180;32805;53.556;9.944;2023-07-08T03:18:40;101922.00;;;19.40
17142;BMP180;32805;53.556;9.944;2023-07-08T03:21:15;101920.00;;;19.40
17142;BMP180;32805;53.556;9.944;2023-07-08T03:23:43;101916.00;;;19.40
17142;BMP180;32805;53.556;9.944;2023-07-08T03:26:14;101922.00;;;19.40
17142;BMP180;32805;53.556;9.944;2023-07-08T03:28:45;101919.00;;;19.50
17142;BMP180;32805;53.556;9.944;2023-07-08T03:31:13;101927.00;;;19.40
17142;BMP180;32805;53.556;9.944;2023-07-08T03:33:40;101920.00;;;19.40
17142;BMP180;32805;53.556;9.944;2023-07-08T03:36:11;101923.00;;;19.50
17142;BMP180;32805;53.556;9.944;2023-07-08T03:38:40;101916.00;;;19.50
17142;BMP180;32805;53.556;9.944;2023-07-08T03:41:11;101921.00;;;19.50
17142;BMP180;32805;53.556;9.944;2023-07-08T03:43:39;101919.00;;;19.50
17142;BMP180;32805;53.556;9.944;2023-07-08T03:46:07;101917.00;;;19.50
17142;BMP180;32805;53.556;9.944;2023-07-08T03:48:36;101918.00;;;19.50
17142;BMP180;32805;53.556;9.944;2023-07-08T03:51:08;101919.00;;;19.50
17142;BMP180;32805;53.556;9.944;2023-07-08T03:53:37;101923.00;;;19.50
17142;BMP180;32805;53.556;9.944;2023-07-08T03:56:08;101923.00;;;19.50
17142;BMP180;32805;53.556;9.944;2023-07-08T03:58:39;101925.00;;;19.40
17142;BMP180;32805;53.556;9.944;2023-07-08T04:01:14;101923.00;;;19.40
17142;BMP180;32805;53.556;9.944;2023-07-08T04:03:45;101916.00;;;19.40
17142;BMP180;32805;53.556;9.944;2023-07-08T04:06:13;101922.00;;;19.40
17142;BMP180;32805;53.556;9.944;2023-07-08T04:08:40;101923.00;;;19.40
17142;BMP180;32805;53.556;9.944;2023-07-08T04:11:12;101914.00;;;19.40
17142;BMP180;32805;53.556;9.944;2023-07-08T04:13:40;101915.00;;;19.40
17142;BMP180;32805;53.556;9.944;2023-07-08T04:16:13;101924.00;;;19.40
17142;BMP180;32805;53.556;9.944;2023-07-08T04:18:46;101919.00;;;19.40
17142;BMP180;32805;53.556;9.944;2023-07-08T04:21:13;101923.00;;;19.40
17142;BMP180;32805;53.556;9.944;2023-07-08T04:23:44;101922.00;;;19.40
17142;BMP180;32805;53.556;9.944;2023-07-08T04:26:13;101914.00;;;19.40
17142;BMP180;32805;53.556;9.944;2023-07-08T04:28:41;101912.00;;;19.40
17142;BMP180;32805;53.556;9.944;2023-07-08T04:31:09;101913.00;;;19.30
17142;BMP180;32805;53.556;9.944;2023-07-08T04:33:37;101925.00;;;19.30
17142;BMP180;32805;53.556;9.944;2023-07-08T04:36:11;101918.00;;;19.40
17142;BMP180;32805;53.556;9.944;2023-07-08T04:38:39;101912.00;;;19.50
17142;BMP180;32805;53.556;9.944;2023-07-08T04:41:08;101918.00;;;19.40
17142;BMP180;32805;53.556;9.944;2023-07-08T04:43:37;101912.00;;;19.50
17142;BMP180;32805;53.556;9.944;2023-07-08T04:46:08;101909.00;;;19.50
17142;BMP180;32805;53.556;9.944;2023-07-08T04:48:43;101912.00;;;19.50
17142;BMP180;32805;53.556;9.944;2023-07-08T04:51:12;101915.00;;;19.50
17142;BMP180;32805;53.556;9.944;2023-07-08T04:53:40;101920.00;;;19.60
17142;BMP180;32805;53.556;9.944;2023-07-08T04:56:08;101916.00;;;19.50
17142;BMP180;32805;53.556;9.944;2023-07-08T04:58:37;101917.00;;;19.50
17142;BMP180;32805;53.556;9.944;2023-07-08T05:01:05;101920.00;;;19.60
17142;BMP180;32805;53.556;9.944;2023-07-08T05:03:32;101917.00;;;19.60
17142;BMP180;32805;53.556;9.944;2023-07-08T05:06:00;101910.00;;;19.60
17142;BMP180;32805;53.556;9.944;2023-07-08T05:08:30;101906.00;;;19.70
17142;BMP180;32805;53.556;9.944;2023-07-08T05:10:58;101910.00;;;19.70
17142;BMP180;32805;53.556;9.944;2023-07-08T05:13:26;101901.00;;;19.70
17142;BMP180;32805;53.556;9.944;2023-07-08T05:15:55;101905.00;;;19.80
17142;BMP180;32805;53.556;9.944;2023-07-08T05:18:23;101910.00;;;19.90
17142;BMP180;32805;53.556;9.944;2023-07-08T05:20:51;101905.00;;;19.90
17142;BMP180;32805;53.556;9.944;2023-07-08T05:23:19;101912.00;;;20.00
17142;BMP180;32805;53.556;9.944;2023-07-08T05:25:47;101913.00;;;20.00
17142;BMP180;32805;53.556;9.944;2023-07-08T05:28:15;101906.00;;;20.10
17142;BMP180;32805;53.556;9.944;2023-07-08T05:30:43;101914.00;;;20.10
17142;BMP180;32805;53.556;9.944;2023-07-08T05:33:12;101916.00;;;20.00
17142;BMP180;32805;53.556;9.944;2023-07-08T05:35:39;101907.00;;;20.10
17142;BMP180;32805;53.556;9.944;2023-07-08T05:38:07;101903.00;;;20.10
17142;BMP180;32805;53.556;9.944;2023-07-08T05:40:35;101904.00;;;20.20
17142;BMP180;32805;53.556;9.944;2023-07-08T05:43:02;101901.00;;;20.20
17142;BMP180;32805;53.556;9.944;2023-07-08T05:45:30;101905.00;;;20.30
17142;BMP180;32805;53.556;9.944;2023-07-08T05:47:58;101904.00;;;20.30
17142;BMP180;32805;53.556;9.944;2023-07-08T05:50:27;101903.00;;;20.40
17142;BMP180;32805;53.556;9.944;2023-07-08T05:52:55;101893.00;;;20.50
17142;BMP180;32805;53.556;9.944;2023-07-08T05:55:22;101900.00;;;20.50
17142;BMP180;32805;53.556;9.944;2023-07-08T05:57:50;101905.00;;;20.60
17142;BMP180;32805;53.556;9.944;2023-07-08T06:00:18;101899.00;;;20.70
17142;BMP180;32805;53.556;9.944;2023-07-08T06:03:03;101884.00;;;20.70
17142;BMP180;32805;53.556;9.944;2023-07-08T06:05:32;101895.00;;;20.70
17142;BMP180;32805;53.556;9.944;2023-07-08T06:08:00;101894.00;;;20.80
17142;BMP180;32805;53.556;9.944;2023-07-08T06:10:27;101906.00;;;20.90
17142;BMP180;32805;53.556;9.944;2023-07-08T06:12:55;101898.00;;;20.80
17142;BMP180;32805;53.556;9.944;2023-07-08T06:15:23;101896.00;;;20.90
17142;BMP180;32805;53.556;9.944;2023-07-08T06:17:50;101904.00;;;21.00
17142;BMP180;32805;53.556;9.944;2023-07-08T06:20:18;101906.00;;;21.10
17142;BMP180;32805;53.556;9.944;2023-07-08T06:22:47;101896.00;;;21.20
17142;BMP180;32805;53.556;9.944;2023-07-08T06:25:17;101899.00;;;21.30
17142;BMP180;32805;53.556;9.944;2023-07-08T06:27:45;101897.00;;;21.30
17142;BMP180;32805;53.556;9.944;2023-07-08T06:30:18;101894.00;;;21.40
17142;BMP180;32805;53.556;9.944;2023-07-08T06:32:45;101902.00;;;21.40
17142;BMP180;32805;53.556;9.944;2023-07-08T06:35:13;101894.00;;;21.50
17142;BMP180;32805;53.556;9.944;2023-07-08T06:37:41;101898.00;;;21.50
17142;BMP180;32805;53.556;9.944;2023-07-08T06:40:12;101894.00;;;21.60
17142;BMP180;32805;53.556;9.944;2023-07-08T06:42:39;101897.00;;;21.60
17142;BMP180;32805;53.556;9.944;2023-07-08T06:45:30;101896.00;;;21.70
17142;BMP180;32805;53.556;9.944;2023-07-08T06:47:58;101899.00;;;21.80
17142;BMP180;32805;53.556;9.944;2023-07-08T06:50:26;101892.00;;;21.90
17142;BMP180;32805;53.556;9.944;2023-07-08T06:52:53;101892.00;;;21.90
17142;BMP180;32805;53.556;9.944;2023-07-08T06:55:23;101895.00;;;22.00
17142;BMP180;32805;53.556;9.944;2023-07-08T06:57:51;101892.00;;;22.10
17142;BMP180;32805;53.556;9.944;2023-07-08T07:00:18;101896.00;;;22.10
17142;BMP180;32805;53.556;9.944;2023-07-08T07:02:46;101890.00;;;22.20
17142;BMP180;32805;53.556;9.944;2023-07-08T07:05:14;101885.00;;;22.30
17142;BMP180;32805;53.556;9.944;2023-07-08T07:07:42;101888.00;;;22.40
17142;BMP180;32805;53.556;9.944;2023-07-08T07:10:09;101881.00;;;22.30
17142;BMP180;32805;53.556;9.944;2023-07-08T07:12:44;101885.00;;;22.30
17142;BMP180;32805;53.556;9.944;2023-07-08T07:15:13;101883.00;;;22.40
17142;BMP180;32805;53.556;9.944;2023-07-08T07:17:41;101877.00;;;22.50
17142;BMP180;32805;53.556;9.944;2023-07-08T07:20:09;101885.00;;;22.60
17142;BMP180;32805;53.556;9.944;2023-07-08T07:22:37;101885.00;;;22.60
17142;BMP180;32805;53.556;9.944;2023-07-08T07:25:05;101886.00;;;22.70
17142;BMP180;32805;53.556;9.944;2023-07-08T07:27:33;101885.00;;;22.80
17142;BMP180;32805;53.556;9.944;2023-07-08T07:30:02;101883.00;;;22.80
17142;BMP180;32805;53.556;9.944;2023-07-08T07:32:30;101878.00;;;22.90
17142;BMP180;32805;53.556;9.944;2023-07-08T07:34:59;101872.00;;;22.90
17142;BMP180;32805;53.556;9.944;2023-07-08T07:37:27;101872.00;;;23.00
17142;BMP180;32805;53.556;9.944;2023-07-08T07:39:55;101860.00;;;23.10
17142;BMP180;32805;53.556;9.944;2023-07-08T07:42:23;101871.00;;;23.10
17142;BMP180;32805;53.556;9.944;2023-07-08T07:44:50;101873.00;;;23.20
17142;BMP180;32805;53.556;9.944;2023-07-08T07:47:19;101869.00;;;23.20
17142;BMP180;32805;53.556;9.944;2023-07-08T07:49:47;101877.00;;;23.30
17142;BMP180;32805;53.556;9.944;2023-07-08T07:52:15;101861.00;;;23.30
17142;BMP180;32805;53.556;9.944;2023-07-08T07:54:45;101870.00;;;23.40
17142;BMP180;32805;53.556;9.944;2023-07-08T07:57:13;101870.00;;;23.50
17142;BMP180;32805;53.556;9.944;2023-07-08T07:59:40;101877.00;;;23.60
17142;BMP180;32805;53.556;9.944;2023-07-08T08:02:08;101869.00;;;23.70
17142;BMP180;32805;53.556;9.944;2023-07-08T08:04:39;101870.00;;;23.70
17142;BMP180;32805;53.556;9.944;2023-07-08T08:07:07;101857.00;;;23.80
17142;BMP180;32805;53.556;9.944;2023-07-08T08:09:36;101859.00;;;23.80
17142;BMP180;32805;53.556;9.944;2023-07-08T08:12:09;101856.00;;;23.80
17142;BMP180;32805;53.556;9.944;2023-07-08T08:14:37;101849.00;;;23.90
17142;BMP180;32805;53.556;9.944;2023-07-08T08:17:05;101855.00;;;24.00
17142;BMP180;32805;53.556;9.944;2023-07-08T08:19:33;101855.00;;;24.00
17142;BMP180;32805;53.556;9.944;2023-07-08T08:22:03;101857.00;;;24.10
17142;BMP180;32805;53.556;9.944;2023-07-08T08:24:30;101861.00;;;24.20
17142;BMP180;32805;53.556;9.944;2023-07-08T08:26:58;101859.00;;;24.30
17142;BMP180;32805;53.556;9.944;2023-07-08T08:29:26;101856.00;;;24.40
17142;BMP180;32805;53.556;9.944;2023-07-08T08:31:56;101862.00;;;24.50
17142;BMP180;32805;53.556;9.944;2023-07-08T08:34:24;101870.00;;;24.50
17142;BMP180;32805;53.556;9.944;2023-07-08T08:36:51;101870.00;;;24.60
17142;BMP180;32805;53.556;9.944;2023-07-08T08:39:29;101860.00;;;24.70
17142;BMP180;32805;53.556;9.944;2023-07-08T08:41:57;101869.00;;;24.70
17142;BMP180;32805;53.556;9.944;2023-07-08T08:44:29;101870.00;;;24.80
17142;BMP180;32805;53.556;9.944;2023-07-08T08:47:05;101861.00;;;24.80
17142;BMP180;32805;53.556;9.944;2023-07-08T08:49:38;101870.00;;;24.80
17142;BMP180;32805;53.556;9.944;2023-07-08T08:52:06;101862.00;;;24.90
17142;BMP180;32805;53.556;9.944;2023-07-08T08:54:36;101856.00;;;24.90
17142;BMP180;32805;53.556;9.944;2023-07-08T08:57:12;101861.00;;;25.10
17142;BMP180;32805;53.556;9.944;2023-07-08T08:59:45;101854.00;;;25.20
17142;BMP180;32805;53.556;9.944;2023-07-08T09:02:28;101854.00;;;25.30
17142;BMP180;32805;53.556;9.944;2023-07-08T09:05:01;101851.00;;;25.30
17142;BMP180;32805;53.556;9.944;2023-07-08T09:07:34;101843.00;;;25.30
17142;BMP180;32805;53.556;9.944;2023-07-08T09:10:10;101834.00;;;25.40
17142;BMP180;32805;53.556;9.944;2023-07-08T09:12:43;101831.00;;;25.40
17142;BMP180;32805;53.556;9.944;2023-07-08T09:15:14;101841.00;;;25.40
17142;BMP180;32805;53.556;9.944;2023-07-08T09:17:42;101845.00;;;25.50
17142;BMP180;32805;53.556;9.944;2023-07-08T09:20:20;101854.00;;;25.50
17142;BMP180;32805;53.556;9.944;2023-07-08T09:22:53;101849.00;;;25.70
17142;BMP180;32805;53.556;9.944;2023-07-08T09:25:30;101846.00;;;25.70
17142;BMP180;32805;53.556;9.944;2023-07-08T09:27:59;101852.00;;;25.80
17142;BMP180;32805;53.556;9.944;2023-07-08T09:30:27;101847.00;;;25.90
17142;BMP180;32805;53.556;9.944;2023-07-08T09:32:55;101842.00;;;25.90
17142;BMP180;32805;53.556;9.944;2023-07-08T09:35:25;101841.00;;;26.00
17142;BMP180;32805;53.556;9.944;2023-07-08T09:37:55;101847.00;;;26.10
17142;BMP180;32805;53.556;9.944;2023-07-08T09:40:31;101847.00;;;26.10
17142;BMP180;32805;53.556;9.944;2023-07-08T09:43:01;101845.00;;;26.00
17142;BMP180;32805;53.556;9.944;2023-07-08T09:45:40;101843.00;;;26.10
17142;BMP180;32805;53.556;9.944;2023-07-08T09:48:16;101840.00;;;26.10
17142;BMP180;32805;53.556;9.944;2023-07-08T09:50:46;101840.00;;;26.20
17142;BMP180;32805;53.556;9.944;2023-07-08T09:53:15;101837.00;;;26.30
17142;BMP180;32805;53.556;9.944;2023-07-08T09:55:44;101841.00;;;26.40
17142;BMP180;32805;53.556;9.944;2023-07-08T09:58:24;101837.00;;;26.40
17142;BMP180;32805;53.556;9.944;2023-07-08T10:00:55;101835.00;;;26.50
17142;BMP180;32805;53.556;9.944;2023-07-08T10:03:27;101839.00;;;26.50
17142;BMP180;32805;53.556;9.944;2023-07-08T10:05:58;101836.00;;;26.50
17142;BMP180;32805;53.556;9.944;2023-07-08T10:08:40;101836.00;;;26.60
17142;BMP180;32805;53.556;9.944;2023-07-08T10:11:22;101836.00;;;26.70
17142;BMP180;32805;53.556;9.944;2023-07-08T10:13:54;101827.00;;;26.80
17142;BMP180;32805;53.556;9.944;2023-07-08T10:16:39;101829.00;;;26.90
17142;BMP180;32805;53.556;9.944;2023-07-08T10:19:12;101832.00;;;26.90
17142;BMP180;32805;53.556;9.944;2023-07-08T10:21:45;101837.00;;;27.00
17142;BMP180;32805;53.556;9.944;2023-07-08T10:24:23;101836.00;;;26.90
17142;BMP180;32805;53.556;9.944;2023-07-08T10:27:00;101823.00;;;26.90
17142;BMP180;32805;53.556;9.944;2023-07-08T10:29:37;101825.00;;;27.00
17142;BMP180;32805;53.556;9.944;2023-07-08T10:32:18;101832.00;;;27.10
17142;BMP180;32805;53.556;9.944;2023-07-08T10:34:52;101823.00;;;27.10
17142;BMP180;32805;53.556;9.944;2023-07-08T10:37:26;101826.00;;;27.20
17142;BMP180;32805;53.556;9.944;2023-07-08T10:40:09;101830.00;;;27.20
17142;BMP180;32805;53.556;9.944;2023-07-08T10:42:52;101830.00;;;27.20
17142;BMP180;32805;53.556;9.944;2023-07-08T10:45:28;101822.00;;;27.30
17142;BMP180;32805;53.556;9.944;2023-07-08T10:48:24;101822.00;;;27.40
17142;BMP180;32805;53.556;9.944;2023-07-08T10:51:06;101822.00;;;27.40
17142;BMP180;32805;53.556;9.944;2023-07-08T10:53:48;101814.00;;;27.40
17142;BMP180;32805;53.556;9.944;2023-07-08T10:56:20;101819.00;;;27.60
17142;BMP180;32805;53.556;9.944;2023-07-08T10:59:06;101821.00;;;27.60
17142;BMP180;32805;53.556;9.944;2023-07-08T11:04:36;101821.00;;;27.70
17142;BMP180;32805;53.556;9.944;2023-07-08T11:07:12;101815.00;;;27.80
17142;BMP180;32805;53.556;9.944;2023-07-08T11:09:49;101803.00;;;27.90
17142;BMP180;32805;53.556;9.944;2023-07-08T11:12:25;101810.00;;;27.90
17142;BMP180;32805;53.556;9.944;2023-07-08T11:15:03;101812.00;;;28.00
17142;BMP180;32805;53.556;9.944;2023-07-08T11:17:37;101803.00;;;28.10
17142;BMP180;32805;53.556;9.944;2023-07-08T11:20:14;101805.00;;;28.20
17142;BMP180;32805;53.556;9.944;2023-07-08T11:22:47;101801.00;;;28.20
17142;BMP180;32805;53.556;9.944;2023-07-08T11:25:19;101809.00;;;28.30
17142;BMP180;32805;53.556;9.944;2023-07-08T11:27:49;101805.00;;;28.30
17142;BMP180;32805;53.556;9.944;2023-07-08T11:30:22;101814.00;;;28.40
17142;BMP180;32805;53.556;9.944;2023-07-08T11:33:02;101795.00;;;28.50
17142;BMP180;32805;53.556;9.944;2023-07-08T11:35:39;101806.00;;;28.40
17142;BMP180;32805;53.556;9.944;2023-07-08T11:38:12;101804.00;;;28.50
17142;BMP180;32805;53.556;9.944;2023-07-08T11:40:57;101801.00;;;28.50
17142;BMP180;32805;53.556;9.944;2023-07-08T11:43:33;101804.00;;;28.60
17142;BMP180;32805;53.556;9.944;2023-07-08T11:46:05;101796.00;;;28.60
17142;BMP180;32805;53.556;9.944;2023-07-08T11:48:40;101790.00;;;28.70
17142;BMP180;32805;53.556;9.944;2023-07-08T11:51:17;101791.00;;;28.70
17142;BMP180;32805;53.556;9.944;2023-07-08T11:53:48;101788.00;;;28.80
17142;BMP180;32805;53.556;9.944;2023-07-08T11:56:22;101784.00;;;28.90
17142;BMP180;32805;53.556;9.944;2023-07-08T11:59:03;101784.00;;;28.90
17142;BMP180;32805;53.556;9.944;2023-07-08T12:01:38;101783.00;;;28.90
17142;BMP180;32805;53.556;9.944;2023-07-08T12:04:23;101785.00;;;28.90
17142;BMP180;32805;53.556;9.944;2023-07-08T12:07:01;101773.00;;;29.00
17142;BMP180;32805;53.556;9.944;2023-07-08T12:09:37;101769.00;;;29.00
17142;BMP180;32805;53.556;9.944;2023-07-08T12:12:10;101775.00;;;29.20
17142;BMP180;32805;53.556;9.944;2023-07-08T12:14:41;101783.00;;;29.20
17142;BMP180;32805;53.556;9.944;2023-07-08T12:17:12;101768.00;;;29.20
17142;BMP180;32805;53.556;9.944;2023-07-08T12:19:42;101770.00;;;29.30
17142;BMP180;32805;53.556;9.944;2023-07-08T12:22:11;101771.00;;;29.30
17142;BMP180;32805;53.556;9.944;2023-07-08T12:24:40;101774.00;;;29.30
17142;BMP180;32805;53.556;9.944;2023-07-08T12:27:10;101778.00;;;29.30
17142;BMP180;32805;53.556;9.944;2023-07-08T12:29:40;101773.00;;;29.30
17142;BMP180;32805;53.556;9.944;2023-07-08T12:32:13;101768.00;;;29.30
17142;BMP180;32805;53.556;9.944;2023-07-08T12:34:41;101772.00;;;29.50
17142;BMP180;32805;53.556;9.944;2023-07-08T12:37:12;101764.00;;;29.50
17142;BMP180;32805;53.556;9.944;2023-07-08T12:39:40;101766.00;;;29.50
17142;BMP180;32805;53.556;9.944;2023-07-08T12:42:10;101754.00;;;29.50
17142;BMP180;32805;53.556;9.944;2023-07-08T12:44:38;101766.00;;;29.60
17142;BMP180;32805;53.556;9.944;2023-07-08T12:47:09;101760.00;;;29.70
17142;BMP180;32805;53.556;9.944;2023-07-08T12:49:38;101756.00;;;29.70
17142;BMP180;32805;53.556;9.944;2023-07-08T12:52:17;101758.00;;;29.90
17142;BMP180;32805;53.556;9.944;2023-07-08T12:54:45;101750.00;;;29.80
17142;BMP180;32805;53.556;9.944;2023-07-08T12:57:14;101759.00;;;29.90
17142;BMP180;32805;53.556;9.944;2023-07-08T12:59:43;101753.00;;;29.70
17142;BMP180;32805;53.556;9.944;2023-07-08T13:02:15;101751.00;;;29.80
17142;BMP180;32805;53.556;9.944;2023-07-08T13:04:47;101750.00;;;29.90
17142;BMP180;32805;53.556;9.944;2023-07-08T13:07:32;101742.00;;;29.90
17142;BMP180;32805;53.556;9.944;2023-07-08T13:10:02;101749.00;;;30.00
17142;BMP180;32805;53.556;9.944;2023-07-08T13:12:31;101744.00;;;30.10
17142;BMP180;32805;53.556;9.944;2023-07-08T13:15:02;101751.00;;;30.10
17142;BMP180;32805;53.556;9.944;2023-07-08T13:17:31;101737.00;;;30.10
17142;BMP180;32805;53.556;9.944;2023-07-08T13:20:02;101742.00;;;30.20
17142;BMP180;32805;53.556;9.944;2023-07-08T13:22:30;101749.00;;;30.20
17142;BMP180;32805;53.556;9.944;2023-07-08T13:24:59;101745.00;;;30.30
17142;BMP180;32805;53.556;9.944;2023-07-08T13:27:27;101739.00;;;30.20
17142;BMP180;32805;53.556;9.944;2023-07-08T13:30:10;101741.00;;;30.20
17142;BMP180;32805;53.556;9.944;2023-07-08T13:32:44;101734.00;;;30.20
17142;BMP180;32805;53.556;9.944;2023-07-08T13:35:35;101729.00;;;30.20
17142;BMP180;32805;53.556;9.944;2023-07-08T13:38:04;101740.00;;;30.20
17142;BMP180;32805;53.556;9.944;2023-07-08T13:40:32;101736.00;;;30.30
17142;BMP180;32805;53.556;9.944;2023-07-08T13:43:00;101729.00;;;30.30
17142;BMP180;32805;53.556;9.944;2023-07-08T13:45:31;101730.00;;;30.30
17142;BMP180;32805;53.556;9.944;2023-07-08T13:48:01;101721.00;;;30.40
17142;BMP180;32805;53.556;9.944;2023-07-08T13:50:38;101720.00;;;30.40
17142;BMP180;32805;53.556;9.944;2023-07-08T13:53:16;101720.00;;;30.40
17142;BMP180;32805;53.556;9.944;2023-07-08T13:55:45;101724.00;;;30.40
17142;BMP180;32805;53.556;9.944;2023-07-08T13:58:15;101721.00;;;30.50
17142;BMP180;32805;53.556;9.944;2023-07-08T14:00:44;101719.00;;;30.50
17142;BMP180;32805;53.556;9.944;2023-07-08T14:03:20;101716.00;;;30.50
17142;BMP180;32805;53.556;9.944;2023-07-08T14:05:49;101730.00;;;30.50
17142;BMP180;32805;53.556;9.944;2023-07-08T14:08:18;101727.00;;;30.50
17142;BMP180;32805;53.556;9.944;2023-07-08T14:10:45;101726.00;;;30.60
17142;BMP180;32805;53.556;9.944;2023-07-08T14:13:13;101731.00;;;30.90
17142;BMP180;32805;53.556;9.944;2023-07-08T14:15:41;101727.00;;;31.10
17142;BMP180;32805;53.556;9.944;2023-07-08T14:18:10;101727.00;;;31.60
17142;BMP180;32805;53.556;9.944;2023-07-08T14:20:38;101719.00;;;32.50